createdAt,value
2024-04-06T00:00:13.880Z,94963.00
2024-04-06T00:01:13.905Z,94965.00
2024-04-06T00:02:13.967Z,94964.00
2024-04-06T00:03:13.981Z,94967.00
2024-04-06T00:04:13.973Z,94965.00
2024-04-06T00:05:14.014Z,94967.00
2024-04-06T00:06:14.035Z,94966.00
2024-04-06T00:07:14.090Z,94967.00
2024-04-06T00:08:17.844Z,94966.00
2024-04-06T00:09:14.075Z,94968.00
2024-04-06T00:10:14.087Z,94970.00
2024-04-06T00:11:14.144Z,94972.00
2024-04-06T00:12:14.094Z,94971.00
2024-04-06T00:13:14.147Z,94974.00
2024-04-06T00:14:14.098Z,94973.00
2024-04-06T00:15:14.100Z,94973.00
2024-04-06T00:16:14.095Z,94974.00
2024-04-06T00:17:14.099Z,94971.00
2024-04-06T00:18:14.105Z,94971.00
2024-04-06T00:19:14.116Z,94972.00
2024-04-06T00:20:14.096Z,94974.00
2024-04-06T00:21:14.094Z,94976.00
2024-04-06T00:22:14.106Z,94976.00
2024-04-06T00:23:14.113Z,94980.00
2024-04-06T00:24:14.126Z,94980.00
2024-04-06T00:25:14.108Z,94980.00
2024-04-06T00:26:14.105Z,94981.00
2024-04-06T00:27:14.099Z,94978.00
2024-04-06T00:28:14.115Z,94976.00
2024-04-06T00:29:14.114Z,94979.00
2024-04-06T00:30:14.103Z,94977.00
2024-04-06T00:31:14.119Z,94975.00
2024-04-06T00:32:14.126Z,94976.00
2024-04-06T00:33:14.111Z,94977.00
2024-04-06T00:34:14.127Z,94977.00
2024-04-06T00:35:14.133Z,94979.00
2024-04-06T00:36:14.120Z,94980.00
2024-04-06T00:37:14.126Z,94981.00
2024-04-06T00:38:14.138Z,94983.00
2024-04-06T00:39:14.159Z,94982.00
2024-04-06T00:40:14.133Z,94981.00
2024-04-06T00:41:14.154Z,94982.00
2024-04-06T00:42:14.141Z,94985.00
2024-04-06T00:43:14.142Z,94987.00
2024-04-06T00:44:14.138Z,94987.00
2024-04-06T00:45:14.146Z,94992.00
2024-04-06T00:46:14.183Z,94990.00
2024-04-06T00:47:14.136Z,94990.00
2024-04-06T00:48:14.153Z,94993.00
2024-04-06T00:49:14.141Z,94992.00
2024-04-06T00:50:14.146Z,94993.00
2024-04-06T00:51:14.167Z,94993.00
2024-04-06T00:52:14.177Z,94998.00
2024-04-06T00:53:14.166Z,94998.00
2024-04-06T00:54:14.161Z,94996.00
2024-04-06T00:55:14.167Z,94995.00
2024-04-06T00:56:14.162Z,94995.00
2024-04-06T00:57:14.167Z,94994.00
2024-04-06T00:58:14.198Z,94996.00
2024-04-06T00:59:14.169Z,94993.00
2024-04-06T01:00:14.195Z,94994.00
2024-04-06T01:01:14.170Z,94996.00
2024-04-06T01:02:14.187Z,94995.00
2024-04-06T01:03:14.209Z,94998.00
2024-04-06T01:04:14.181Z,95001.00
2024-04-06T01:05:14.176Z,95006.00
2024-04-06T01:06:14.192Z,95008.00
2024-04-06T01:07:14.179Z,95010.00
2024-04-06T01:08:14.180Z,95007.00
2024-04-06T01:09:14.212Z,95007.00
2024-04-06T01:10:14.183Z,95005.00
2024-04-06T01:11:14.239Z,95005.00
2024-04-06T01:12:14.195Z,95007.00
2024-04-06T01:13:14.200Z,95005.00
2024-04-06T01:14:14.196Z,95004.00
2024-04-06T01:15:14.195Z,95005.00
2024-04-06T01:16:14.200Z,95005.00
2024-04-06T01:17:14.227Z,95008.00
2024-04-06T01:18:14.249Z,95007.00
2024-04-06T01:19:14.250Z,95006.00
2024-04-06T01:20:14.271Z,95005.00
2024-04-06T01:21:14.295Z,95005.00
2024-04-06T01:22:14.317Z,95008.00
2024-04-06T01:23:14.323Z,95008.00
2024-04-06T01:24:14.405Z,95009.00
2024-04-06T01:25:14.377Z,95010.00
2024-04-06T01:26:14.382Z,95008.00
2024-04-06T01:27:14.409Z,95010.00
2024-04-06T01:28:14.420Z,95010.00
2024-04-06T01:29:14.436Z,95009.00
2024-04-06T01:30:14.452Z,95008.00
2024-04-06T01:31:14.459Z,95010.00
2024-04-06T01:32:14.510Z,95009.00
2024-04-06T01:33:14.497Z,95011.00
2024-04-06T01:34:14.549Z,95007.00
2024-04-06T01:35:14.536Z,95009.00
2024-04-06T01:36:14.559Z,95008.00
2024-04-06T01:37:14.571Z,95009.00
2024-04-06T01:38:14.598Z,95012.00
2024-04-06T01:39:14.636Z,95013.00
2024-04-06T01:40:14.626Z,95013.00
2024-04-06T01:41:14.662Z,95017.00
2024-04-06T01:42:14.679Z,95015.00
2024-04-06T01:43:14.699Z,95016.00
2024-04-06T01:44:14.744Z,95016.00
2024-04-06T01:45:14.766Z,95016.00
2024-04-06T01:46:14.777Z,95018.00
2024-04-06T01:47:14.823Z,95018.00
2024-04-06T01:48:14.826Z,95019.00
2024-04-06T01:49:14.849Z,95017.00
2024-04-06T01:50:14.888Z,95018.00
2024-04-06T01:51:14.887Z,95015.00
2024-04-06T01:52:14.927Z,95014.00
2024-04-06T01:53:14.948Z,95013.00
2024-04-06T01:54:14.990Z,95015.00
2024-04-06T01:55:15.009Z,95016.00
2024-04-06T01:56:15.034Z,95020.00
2024-04-06T01:57:15.049Z,95023.00
2024-04-06T01:58:15.065Z,95022.00
2024-04-06T01:59:15.076Z,95025.00
2024-04-06T02:00:15.127Z,95025.00
2024-04-06T02:01:15.112Z,95026.00
2024-04-06T02:02:15.136Z,95026.00
2024-04-06T02:03:15.151Z,95027.00
2024-04-06T02:04:15.218Z,95027.00
2024-04-06T02:05:15.218Z,95028.00
2024-04-06T02:06:15.215Z,95028.00
2024-04-06T02:07:15.244Z,95028.00
2024-04-06T02:08:15.292Z,95028.00
2024-04-06T02:09:15.312Z,95029.00
2024-04-06T02:10:15.347Z,95029.00
2024-04-06T02:11:15.435Z,95030.00
2024-04-06T02:12:15.366Z,95030.00
2024-04-06T02:13:15.396Z,95032.00
2024-04-06T02:14:15.425Z,95036.00
2024-04-06T02:15:15.436Z,95033.00
2024-04-06T02:16:15.446Z,95032.00
2024-04-06T02:17:15.468Z,95034.00
2024-04-06T02:18:15.486Z,95031.00
2024-04-06T02:19:15.662Z,95032.00
2024-04-06T02:20:15.534Z,95031.00
2024-04-06T02:21:15.546Z,95034.00
2024-04-06T02:22:15.621Z,95032.00
2024-04-06T02:23:15.620Z,95034.00
2024-04-06T02:24:15.607Z,95031.00
2024-04-06T02:25:15.701Z,95031.00
2024-04-06T02:26:15.682Z,95034.00
2024-04-06T02:27:15.696Z,95033.00
2024-04-06T02:28:15.736Z,95034.00
2024-04-06T02:29:15.735Z,95034.00
2024-04-06T02:30:15.761Z,95034.00
2024-04-06T02:31:15.779Z,95035.00
2024-04-06T02:32:15.806Z,95035.00
2024-04-06T02:33:15.821Z,95035.00
2024-04-06T02:34:15.840Z,95038.00
2024-04-06T02:35:15.857Z,95038.00
2024-04-06T02:36:15.877Z,95039.00
2024-04-06T02:37:15.894Z,95039.00
2024-04-06T02:38:15.912Z,95043.00
2024-04-06T02:39:15.967Z,95043.00
2024-04-06T02:40:15.996Z,95047.00
2024-04-06T02:41:16.016Z,95047.00
2024-04-06T02:42:16.027Z,95046.00
2024-04-06T02:43:16.025Z,95045.00
2024-04-06T02:44:16.072Z,95046.00
2024-04-06T02:45:16.062Z,95045.00
2024-04-06T02:46:16.069Z,95045.00
2024-04-06T02:47:16.098Z,95045.00
2024-04-06T02:48:16.147Z,95045.00
2024-04-06T02:49:16.477Z,95044.00
2024-04-06T02:50:16.187Z,95045.00
2024-04-06T02:51:16.207Z,95046.00
2024-04-06T02:52:16.216Z,95048.00
2024-04-06T02:53:16.243Z,95050.00
2024-04-06T02:54:16.331Z,95052.00
2024-04-06T02:55:16.308Z,95053.00
2024-04-06T02:56:16.308Z,95052.00
2024-04-06T02:57:16.337Z,95055.00
2024-04-06T02:58:16.334Z,95055.00
2024-04-06T02:59:16.358Z,95058.00
2024-04-06T03:00:16.395Z,95059.00
2024-04-06T03:01:16.397Z,95059.00
2024-04-06T03:02:16.398Z,95059.00
2024-04-06T03:03:16.419Z,95059.00
2024-04-06T03:04:16.447Z,95060.00
2024-04-06T03:05:16.465Z,95057.00
2024-04-06T03:06:16.471Z,95057.00
2024-04-06T03:07:16.496Z,95057.00
2024-04-06T03:08:16.515Z,95058.00
2024-04-06T03:09:16.536Z,95057.00
2024-04-06T03:10:16.562Z,95060.00
2024-04-06T03:11:16.616Z,95062.00
2024-04-06T03:12:16.571Z,95063.00
2024-04-06T03:13:16.615Z,95063.00
2024-04-06T03:14:16.619Z,95067.00
2024-04-06T03:15:16.650Z,95065.00
2024-04-06T03:16:16.664Z,95066.00
2024-04-06T03:17:16.698Z,95066.00
2024-04-06T03:18:16.696Z,95065.00
2024-04-06T03:19:16.735Z,95065.00
2024-04-06T03:20:16.737Z,95066.00
2024-04-06T03:21:16.750Z,95069.00
2024-04-06T03:22:16.777Z,95069.00
2024-04-06T03:23:16.793Z,95069.00
2024-04-06T03:24:16.808Z,95069.00
2024-04-06T03:25:16.836Z,95068.00
2024-04-06T03:26:16.855Z,95066.00
2024-04-06T03:27:16.875Z,95063.00
2024-04-06T03:28:16.888Z,95062.00
2024-04-06T03:29:16.911Z,95063.00
2024-04-06T03:30:16.972Z,95061.00
2024-04-06T03:31:16.946Z,95062.00
2024-04-06T03:32:16.966Z,95064.00
2024-04-06T03:33:16.989Z,95062.00
2024-04-06T03:34:17.014Z,95063.00
2024-04-06T03:35:17.012Z,95063.00
2024-04-06T03:36:17.039Z,95064.00
2024-04-06T03:37:17.058Z,95063.00
2024-04-06T03:38:17.056Z,95065.00
2024-04-06T03:39:17.093Z,95065.00
2024-04-06T03:40:17.115Z,95067.00
2024-04-06T03:41:17.135Z,95069.00
2024-04-06T03:42:17.148Z,95068.00
2024-04-06T03:43:17.168Z,95073.00
2024-04-06T03:44:17.192Z,95071.00
2024-04-06T03:45:17.208Z,95070.00
2024-04-06T03:46:17.225Z,95070.00
2024-04-06T03:47:17.239Z,95071.00
2024-04-06T03:48:17.256Z,95072.00
2024-04-06T03:49:17.281Z,95074.00
2024-04-06T03:50:17.294Z,95074.00
2024-04-06T03:51:17.318Z,95076.00
2024-04-06T03:52:17.342Z,95073.00
2024-04-06T03:53:17.359Z,95074.00
2024-04-06T03:54:17.373Z,95073.00
2024-04-06T03:55:17.397Z,95072.00
2024-04-06T03:56:17.411Z,95075.00
2024-04-06T03:57:17.427Z,95076.00
2024-04-06T03:58:17.448Z,95079.00
2024-04-06T03:59:17.466Z,95079.00
2024-04-06T04:00:17.508Z,95080.00
2024-04-06T04:01:17.506Z,95082.00
2024-04-06T04:02:17.517Z,95082.00
2024-04-06T04:03:17.534Z,95083.00
2024-04-06T04:04:17.553Z,95083.00
2024-04-06T04:05:17.579Z,95083.00
2024-04-06T04:06:17.582Z,95083.00
2024-04-06T04:07:17.625Z,95084.00
2024-04-06T04:08:17.629Z,95082.00
2024-04-06T04:09:17.658Z,95086.00
2024-04-06T04:10:17.680Z,95086.00
2024-04-06T04:11:17.690Z,95084.00
2024-04-06T04:12:17.703Z,95085.00
2024-04-06T04:13:17.726Z,95085.00
2024-04-06T04:14:17.748Z,95085.00
2024-04-06T04:15:17.763Z,95084.00
2024-04-06T04:16:17.778Z,95080.00
2024-04-06T04:17:17.811Z,95081.00
2024-04-06T04:18:17.830Z,95080.00
2024-04-06T04:19:17.843Z,95081.00
2024-04-06T04:20:17.860Z,95082.00
2024-04-06T04:21:17.883Z,95081.00
2024-04-06T04:22:17.906Z,95083.00
2024-04-06T04:23:17.920Z,95085.00
2024-04-06T04:24:17.977Z,95085.00
2024-04-06T04:25:17.989Z,95089.00
2024-04-06T04:26:18.023Z,95090.00
2024-04-06T04:27:18.035Z,95091.00
2024-04-06T04:28:18.062Z,95092.00
2024-04-06T04:29:18.078Z,95095.00
2024-04-06T04:30:18.103Z,95094.00
2024-04-06T04:31:18.122Z,95097.00
2024-04-06T04:32:25.394Z,95095.00
2024-04-06T04:33:25.366Z,95094.00
2024-04-06T04:34:25.382Z,95096.00
2024-04-06T04:35:25.375Z,95096.00
2024-04-06T04:36:25.367Z,95099.00
2024-04-06T04:37:25.388Z,95099.00
2024-04-06T04:38:25.384Z,95101.00
2024-04-06T04:39:25.374Z,95098.00
2024-04-06T04:40:25.394Z,95101.00
2024-04-06T04:41:25.407Z,95101.00
2024-04-06T04:42:25.393Z,95103.00
2024-04-06T04:43:25.406Z,95104.00
2024-04-06T04:44:38.210Z,95103.00
2024-04-06T04:45:26.412Z,95105.00
2024-04-06T04:46:25.409Z,95103.00
2024-04-06T04:47:25.415Z,95104.00
2024-04-06T04:48:25.427Z,95104.00
2024-04-06T04:49:25.423Z,95103.00
2024-04-06T04:50:25.424Z,95104.00
2024-04-06T04:51:25.416Z,95102.00
2024-04-06T04:52:25.422Z,95103.00
2024-04-06T04:53:25.423Z,95104.00
2024-04-06T04:54:25.407Z,95103.00
2024-04-06T04:55:25.422Z,95105.00
2024-04-06T04:56:25.431Z,95103.00
2024-04-06T04:57:25.415Z,95104.00
2024-04-06T04:58:25.421Z,95104.00
2024-04-06T04:59:25.442Z,95106.00
2024-04-06T05:00:25.421Z,95106.00
2024-04-06T05:01:25.417Z,95107.00
2024-04-06T05:02:25.442Z,95108.00
2024-04-06T05:03:25.419Z,95108.00
2024-04-06T05:04:25.437Z,95109.00
2024-04-06T05:05:25.451Z,95109.00
2024-04-06T05:06:25.456Z,95110.00
2024-04-06T05:07:25.505Z,95112.00
2024-04-06T05:08:25.501Z,95114.00
2024-04-06T05:09:25.515Z,95113.00
2024-04-06T05:10:25.552Z,95114.00
2024-04-06T05:11:25.570Z,95113.00
2024-04-06T05:12:25.588Z,95113.00
2024-04-06T05:13:25.605Z,95113.00
2024-04-06T05:14:25.610Z,95113.00
2024-04-06T05:15:25.650Z,95113.00
2024-04-06T05:16:25.694Z,95113.00
2024-04-06T05:17:25.703Z,95112.00
2024-04-06T05:18:25.712Z,95114.00
2024-04-06T05:19:25.766Z,95116.00
2024-04-06T05:20:25.766Z,95116.00
2024-04-06T05:21:25.790Z,95115.00
2024-04-06T05:22:25.812Z,95118.00
2024-04-06T05:23:25.828Z,95120.00
2024-04-06T05:24:25.851Z,95121.00
2024-04-06T05:25:25.882Z,95123.00
2024-04-06T05:26:25.882Z,95126.00
2024-04-06T05:27:25.916Z,95126.00
2024-04-06T05:28:25.929Z,95127.00
2024-04-06T05:29:26.012Z,95126.00
2024-04-06T05:30:26.027Z,95127.00
2024-04-06T05:31:26.002Z,95127.00
2024-04-06T05:32:26.038Z,95127.00
2024-04-06T05:33:26.063Z,95125.00
2024-04-06T05:34:26.092Z,95124.00
2024-04-06T05:35:26.125Z,95126.00
2024-04-06T05:36:26.111Z,95124.00
2024-04-06T05:37:26.110Z,95125.00
2024-04-06T05:38:26.138Z,95123.00
2024-04-06T05:39:26.154Z,95121.00
2024-04-06T05:40:26.177Z,95122.00
2024-04-06T05:41:26.191Z,95123.00
2024-04-06T05:42:26.223Z,95122.00
2024-04-06T05:43:26.252Z,95122.00
2024-04-06T05:44:26.268Z,95125.00
2024-04-06T05:45:26.282Z,95123.00
2024-04-06T05:46:26.296Z,95124.00
2024-04-06T05:47:26.381Z,95120.00
2024-04-06T05:48:26.336Z,95120.00
2024-04-06T05:49:26.361Z,95119.00
2024-04-06T05:50:26.390Z,95115.00
2024-04-06T05:51:26.413Z,95114.00
2024-04-06T05:52:29.411Z,95115.00
2024-04-06T05:53:26.463Z,95114.00
2024-04-06T05:54:26.415Z,95114.00
2024-04-06T05:55:26.428Z,95114.00
2024-04-06T05:56:26.424Z,95111.00
2024-04-06T05:57:26.425Z,95112.00
2024-04-06T05:58:26.438Z,95112.00
2024-04-06T05:59:26.498Z,95110.00
2024-04-06T06:00:26.469Z,95108.00
2024-04-06T06:01:26.454Z,95108.00
2024-04-06T06:02:26.425Z,95111.00
2024-04-06T06:03:26.431Z,95109.00
2024-04-06T06:04:26.436Z,95105.00
2024-04-06T06:05:26.516Z,95103.00
2024-04-06T06:06:26.455Z,95103.00
2024-04-06T06:07:26.460Z,95103.00
2024-04-06T06:08:26.461Z,95104.00
2024-04-06T06:09:26.461Z,95106.00
2024-04-06T06:10:26.455Z,95107.00
2024-04-06T06:11:26.475Z,95104.00
2024-04-06T06:12:26.463Z,95105.00
2024-04-06T06:13:26.462Z,95103.00
2024-04-06T06:14:26.475Z,95100.00
2024-04-06T06:15:26.485Z,95102.00
2024-04-06T06:16:26.475Z,95104.00
2024-04-06T06:17:26.487Z,95104.00
2024-04-06T06:18:26.477Z,95108.00
2024-04-06T06:19:26.486Z,95108.00
2024-04-06T06:20:26.506Z,95110.00
2024-04-06T06:21:26.482Z,95110.00
2024-04-06T06:22:26.486Z,95111.00
2024-04-06T06:23:26.481Z,95113.00
2024-04-06T06:24:26.498Z,95112.00
2024-04-06T06:25:26.475Z,95114.00
2024-04-06T06:26:26.492Z,95114.00
2024-04-06T06:27:26.506Z,95117.00
2024-04-06T06:28:26.485Z,95116.00
2024-04-06T06:29:26.503Z,95114.00
2024-04-06T06:30:26.518Z,95111.00
2024-04-06T06:31:26.487Z,95110.00
2024-04-06T06:32:26.492Z,95108.00
2024-04-06T06:33:26.503Z,95107.00
2024-04-06T06:34:26.515Z,95106.00
2024-04-06T06:35:26.524Z,95111.00
2024-04-06T06:38:27.734Z,95114.00
2024-04-06T06:41:26.542Z,95111.00
2024-04-06T06:42:26.572Z,95112.00
2024-04-06T06:43:26.517Z,95115.00
2024-04-06T06:44:26.534Z,95113.00
2024-04-06T06:45:26.520Z,95118.00
2024-04-06T06:46:26.525Z,95116.00
2024-04-06T06:47:26.519Z,95116.00
2024-04-06T06:48:26.493Z,95119.00
2024-04-06T06:49:26.523Z,95118.00
2024-04-06T06:50:26.530Z,95119.00
2024-04-06T06:51:26.504Z,95120.00
2024-04-06T06:52:26.539Z,95118.00
2024-04-06T06:53:26.563Z,95119.00
2024-04-06T06:54:26.549Z,95117.00
2024-04-06T06:55:26.561Z,95116.00
2024-04-06T06:56:26.531Z,95115.00
2024-04-06T06:57:26.536Z,95115.00
2024-04-06T06:58:26.530Z,95115.00
2024-04-06T07:00:20.122Z,95117.00
2024-04-06T07:00:27.527Z,95116.00
2024-04-06T07:01:26.551Z,95115.00
2024-04-06T07:02:26.554Z,95112.00
2024-04-06T07:03:26.557Z,95112.00
2024-04-06T07:04:26.547Z,95110.00
2024-04-06T07:05:26.553Z,95111.00
2024-04-06T07:07:26.596Z,95109.00
2024-04-06T07:08:26.614Z,95106.00
2024-04-06T07:09:26.565Z,95107.00
2024-04-06T07:10:26.585Z,95105.00
2024-04-06T07:11:26.574Z,95103.00
2024-04-06T07:12:26.573Z,95101.00
2024-04-06T07:13:26.559Z,95098.00
2024-04-06T07:14:26.562Z,95095.00
2024-04-06T07:15:26.565Z,95094.00
2024-04-06T07:16:26.589Z,95093.00
2024-04-06T07:17:27.119Z,95091.00
2024-04-06T07:18:26.581Z,95095.00
2024-04-06T07:19:26.590Z,95097.00
2024-04-06T07:20:26.595Z,95095.00
2024-04-06T07:21:26.578Z,95096.00
2024-04-06T07:22:26.562Z,95095.00
2024-04-06T07:23:26.585Z,95094.00
2024-04-06T07:24:26.578Z,95093.00
2024-04-06T07:25:26.594Z,95094.00
2024-04-06T07:26:26.602Z,95095.00
2024-04-06T07:27:26.588Z,95096.00
2024-04-06T07:28:26.607Z,95097.00
2024-04-06T07:29:26.587Z,95100.00
2024-04-06T07:30:26.613Z,95102.00
2024-04-06T07:31:26.597Z,95103.00
2024-04-06T07:32:26.615Z,95104.00
2024-04-06T07:33:26.608Z,95104.00
2024-04-06T07:34:26.615Z,95103.00
2024-04-06T07:35:26.603Z,95102.00
2024-04-06T07:36:26.609Z,95103.00
2024-04-06T07:37:26.603Z,95102.00
2024-04-06T07:38:26.598Z,95102.00
2024-04-06T07:39:26.602Z,95103.00
2024-04-06T07:40:26.753Z,95104.00
2024-04-06T07:41:26.607Z,95106.00
2024-04-06T07:42:26.663Z,95108.00
2024-04-06T07:43:26.626Z,95108.00
2024-04-06T07:44:26.609Z,95109.00
2024-04-06T07:45:26.621Z,95109.00
2024-04-06T07:46:26.613Z,95106.00
2024-04-06T07:47:26.657Z,95106.00
2024-04-06T07:48:26.640Z,95104.00
2024-04-06T07:49:26.656Z,95104.00
2024-04-06T07:50:26.733Z,95103.00
2024-04-06T07:51:26.790Z,95102.00
2024-04-06T07:52:26.830Z,95104.00
2024-04-06T07:53:26.896Z,95102.00
2024-04-06T07:54:26.954Z,95100.00
2024-04-06T07:55:27.018Z,95103.00
2024-04-06T07:56:27.060Z,95101.00
2024-04-06T07:57:27.133Z,95100.00
2024-04-06T07:58:27.174Z,95100.00
2024-04-06T07:59:27.247Z,95101.00
2024-04-06T08:00:27.330Z,95100.00
2024-04-06T08:01:27.346Z,95097.00
2024-04-06T08:02:27.402Z,95094.00
2024-04-06T08:03:27.479Z,95098.00
2024-04-06T08:04:27.509Z,95098.00
2024-04-06T08:05:27.563Z,95097.00
2024-04-06T08:06:27.635Z,95094.00
2024-04-06T08:07:27.672Z,95096.00
2024-04-06T08:08:27.721Z,95097.00
2024-04-06T08:09:27.751Z,95097.00
2024-04-06T08:10:27.802Z,95096.00
2024-04-06T08:11:27.833Z,95095.00
2024-04-06T08:12:27.911Z,95093.00
2024-04-06T08:13:27.928Z,95092.00
2024-04-06T08:14:27.955Z,95089.00
2024-04-06T08:15:30.950Z,95089.00
2024-04-06T08:16:28.019Z,95088.00
2024-04-06T08:17:28.088Z,95088.00
2024-04-06T08:18:28.017Z,95088.00
2024-04-06T08:19:28.028Z,95087.00
2024-04-06T08:20:28.020Z,95084.00
2024-04-06T08:21:28.011Z,95084.00
2024-04-06T08:22:28.019Z,95085.00
2024-04-06T08:23:28.031Z,95085.00
2024-04-06T08:24:28.014Z,95083.00
2024-04-06T08:25:28.074Z,95079.00
2024-04-06T08:26:28.026Z,95080.00
2024-04-06T08:27:28.025Z,95079.00
2024-04-06T08:28:28.054Z,95080.00
2024-04-06T08:29:28.035Z,95078.00
2024-04-06T08:30:28.031Z,95075.00
2024-04-06T08:31:28.052Z,95073.00
2024-04-06T08:32:28.055Z,95072.00
2024-04-06T08:33:28.057Z,95073.00
2024-04-06T08:34:28.047Z,95071.00
2024-04-06T08:35:28.040Z,95071.00
2024-04-06T08:36:28.059Z,95066.00
2024-04-06T08:37:28.066Z,95067.00
2024-04-06T08:38:28.054Z,95067.00
2024-04-06T08:39:28.074Z,95065.00
2024-04-06T08:40:28.082Z,95064.00
2024-04-06T08:41:28.061Z,95064.00
2024-04-06T08:42:28.096Z,95060.00
2024-04-06T08:43:28.061Z,95060.00
2024-04-06T08:44:28.065Z,95060.00
2024-04-06T08:45:28.124Z,95057.00
2024-04-06T08:46:28.066Z,95054.00
2024-04-06T08:47:28.103Z,95053.00
2024-04-06T08:48:28.084Z,95051.00
2024-04-06T08:49:28.080Z,95049.00
2024-04-06T08:50:28.066Z,95049.00
2024-04-06T08:51:28.094Z,95047.00
2024-04-06T08:52:28.077Z,95046.00
2024-04-06T08:53:28.143Z,95047.00
2024-04-06T08:54:28.089Z,95046.00
2024-04-06T08:55:28.083Z,95044.00
2024-04-06T08:56:28.088Z,95041.00
2024-04-06T08:57:28.105Z,95040.00
2024-04-06T08:58:28.150Z,95040.00
2024-04-06T08:59:28.159Z,95041.00
2024-04-06T09:00:28.250Z,95039.00
2024-04-06T09:01:28.227Z,95040.00
2024-04-06T09:02:28.247Z,95036.00
2024-04-06T09:03:28.283Z,95035.00
2024-04-06T09:04:28.294Z,95034.00
2024-04-06T09:05:28.338Z,95034.00
2024-04-06T09:06:28.348Z,95033.00
2024-04-06T09:07:28.398Z,95029.00
2024-04-06T09:08:28.393Z,95028.00
2024-04-06T09:09:28.424Z,95026.00
2024-04-06T09:10:28.483Z,95024.00
2024-04-06T09:11:28.492Z,95021.00
2024-04-06T09:12:28.493Z,95018.00
2024-04-06T09:13:28.524Z,95014.00
2024-04-06T09:14:28.524Z,95016.00
2024-04-06T09:15:28.564Z,95013.00
2024-04-06T09:16:28.590Z,95010.00
2024-04-06T09:17:28.623Z,95008.00
2024-04-06T09:18:30.748Z,95006.00
2024-04-06T09:19:28.656Z,95005.00
2024-04-06T09:20:28.684Z,95004.00
2024-04-06T09:21:28.671Z,95004.00
2024-04-06T09:22:28.699Z,95004.00
2024-04-06T09:23:28.704Z,95001.00
2024-04-06T09:24:28.725Z,94998.00
2024-04-06T09:25:28.770Z,94994.00
2024-04-06T09:26:28.744Z,94992.00
2024-04-06T09:27:28.768Z,94993.00
2024-04-06T09:28:28.775Z,94994.00
2024-04-06T09:29:28.796Z,94992.00
2024-04-06T09:30:28.823Z,94991.00
2024-04-06T09:31:28.859Z,94989.00
2024-04-06T09:32:28.860Z,94988.00
2024-04-06T09:33:28.827Z,94988.00
2024-04-06T09:34:28.846Z,94986.00
2024-04-06T09:35:28.903Z,94984.00
2024-04-06T09:36:28.874Z,94985.00
2024-04-06T09:37:28.940Z,94981.00
2024-04-06T09:38:28.935Z,94977.00
2024-04-06T09:39:28.939Z,94980.00
2024-04-06T09:40:28.972Z,94975.00
2024-04-06T09:41:28.991Z,94975.00
2024-04-06T09:42:29.012Z,94973.00
2024-04-06T09:43:29.039Z,94970.00
2024-04-06T09:44:29.072Z,94970.00
2024-04-06T09:45:29.103Z,94967.00
2024-04-06T09:46:29.142Z,94965.00
2024-04-06T09:47:29.218Z,94965.00
2024-04-06T09:48:29.208Z,94964.00
2024-04-06T09:49:29.273Z,94963.00
2024-04-06T09:50:29.296Z,94959.00
2024-04-06T09:51:29.332Z,94961.00
2024-04-06T09:52:29.379Z,94958.00
2024-04-06T09:53:29.448Z,94957.00
2024-04-06T09:54:29.516Z,94956.00
2024-04-06T09:55:29.537Z,94957.00
2024-04-06T09:56:29.603Z,94955.00
2024-04-06T09:57:29.626Z,94951.00
2024-04-06T09:58:29.690Z,94949.00
2024-04-06T09:59:29.766Z,94947.00
2024-04-06T10:00:29.810Z,94946.00
2024-04-06T10:01:29.851Z,94943.00
2024-04-06T10:02:29.940Z,94937.00
2024-04-06T10:03:29.967Z,94937.00
2024-04-06T10:04:30.011Z,94934.00
2024-04-06T10:05:30.083Z,94932.00
2024-04-06T10:06:30.116Z,94929.00
2024-04-06T10:07:30.191Z,94926.00
2024-04-06T10:08:30.220Z,94924.00
2024-04-06T10:09:30.246Z,94924.00
2024-04-06T10:10:30.293Z,94922.00
2024-04-06T10:11:30.339Z,94923.00
2024-04-06T10:12:30.389Z,94921.00
2024-04-06T10:13:30.429Z,94920.00
2024-04-06T10:14:30.461Z,94919.00
2024-04-06T10:15:30.528Z,94919.00
2024-04-06T10:16:30.584Z,94918.00
2024-04-06T10:17:30.615Z,94916.00
2024-04-06T10:18:30.656Z,94914.00
2024-04-06T10:19:30.717Z,94915.00
2024-04-06T10:20:30.738Z,94915.00
2024-04-06T10:21:30.806Z,94912.00
2024-04-06T10:22:30.879Z,94912.00
2024-04-06T10:23:30.926Z,94912.00
2024-04-06T10:24:30.990Z,94911.00
2024-04-06T10:25:31.057Z,94910.00
2024-04-06T10:26:31.094Z,94914.00
2024-04-06T10:27:31.148Z,94913.00
2024-04-06T10:28:31.217Z,94915.00
2024-04-06T10:29:31.245Z,94914.00
2024-04-06T10:30:31.308Z,94916.00
2024-04-06T10:31:39.565Z,94915.00
2024-04-06T10:32:32.452Z,94914.00
2024-04-06T10:33:31.395Z,94913.00
2024-04-06T10:34:36.384Z,94911.00
2024-04-06T10:35:32.416Z,94909.00
2024-04-06T10:36:31.395Z,94911.00
2024-04-06T10:37:31.403Z,94908.00
2024-04-06T10:38:31.428Z,94909.00
2024-04-06T10:39:31.406Z,94905.00
2024-04-06T10:40:31.413Z,94903.00
2024-04-06T10:41:31.413Z,94903.00
2024-04-06T10:42:31.410Z,94900.00
2024-04-06T10:43:31.421Z,94897.00
2024-04-06T10:44:31.418Z,94897.00
2024-04-06T10:45:31.440Z,94897.00
2024-04-06T10:46:31.472Z,94897.00
2024-04-06T10:47:31.546Z,94896.00
2024-04-06T10:48:31.600Z,94896.00
2024-04-06T10:49:31.620Z,94892.00
2024-04-06T10:50:31.686Z,94892.00
2024-04-06T10:51:31.859Z,94890.00
2024-04-06T10:52:31.875Z,94887.00
2024-04-06T10:53:31.855Z,94887.00
2024-04-06T10:54:32.676Z,94884.00
2024-04-06T10:55:31.976Z,94883.00
2024-04-06T10:56:32.003Z,94881.00
2024-04-06T10:57:32.104Z,94879.00
2024-04-06T10:58:32.123Z,94877.00
2024-04-06T10:59:32.177Z,94874.00
2024-04-06T11:00:33.413Z,94875.00
2024-04-06T11:01:32.281Z,94872.00
2024-04-06T11:02:32.320Z,94871.00
2024-04-06T11:03:32.354Z,94871.00
2024-04-06T11:04:32.401Z,94870.00
2024-04-06T11:05:32.469Z,94870.00
2024-04-06T11:06:33.820Z,94868.00
2024-04-06T11:07:32.562Z,94866.00
2024-04-06T11:08:32.635Z,94865.00
2024-04-06T11:09:32.681Z,94864.00
2024-04-06T11:10:32.717Z,94865.00
2024-04-06T11:11:32.740Z,94863.00
2024-04-06T11:12:34.376Z,94861.00
2024-04-06T11:13:32.785Z,94860.00
2024-04-06T11:14:32.790Z,94861.00
2024-04-06T11:15:32.795Z,94859.00
2024-04-06T11:16:32.788Z,94859.00
2024-04-06T11:17:32.866Z,94857.00
2024-04-06T11:18:33.081Z,94856.00
2024-04-06T11:19:32.789Z,94856.00
2024-04-06T11:20:33.211Z,94853.00
2024-04-06T11:21:32.798Z,94854.00
2024-04-06T11:22:32.806Z,94851.00
2024-04-06T11:23:32.831Z,94853.00
2024-04-06T11:24:34.344Z,94850.00
2024-04-06T11:25:32.802Z,94849.00
2024-04-06T11:26:32.812Z,94847.00
2024-04-06T11:27:32.815Z,94846.00
2024-04-06T11:28:32.845Z,94844.00
2024-04-06T11:29:32.826Z,94845.00
2024-04-06T11:30:32.820Z,94843.00
2024-04-06T11:31:32.824Z,94841.00
2024-04-06T11:32:32.828Z,94840.00
2024-04-06T11:33:32.849Z,94839.00
2024-04-06T11:34:32.846Z,94840.00
2024-04-06T11:35:32.826Z,94837.00
2024-04-06T11:36:32.847Z,94836.00
2024-04-06T11:37:32.860Z,94836.00
2024-04-06T11:38:32.849Z,94836.00
2024-04-06T11:39:32.859Z,94835.00
2024-04-06T11:40:32.855Z,94836.00
2024-04-06T11:41:32.842Z,94833.00
2024-04-06T11:42:32.859Z,94832.00
2024-04-06T11:43:32.874Z,94830.00
2024-04-06T11:44:32.844Z,94831.00
2024-04-06T11:45:32.868Z,94828.00
2024-04-06T11:46:32.854Z,94828.00
2024-04-06T11:47:32.871Z,94826.00
2024-04-06T11:48:32.878Z,94827.00
2024-04-06T11:49:32.853Z,94825.00